sensor_id;sensor_type;location;lat;lon;timestamp;P1;durP1;ratioP1;P2;durP2;ratioP2
3995;SDS011;2012;49.794;9.722;2024-01-06T00:02:15;5.47;;;3.37;;
3995;SDS011;2012;49.794;9.722;2024-01-06T00:04:42;9.17;;;5.03;;
3995;SDS011;2012;49.794;9.722;2024-01-06T00:07:09;5.77;;;3.47;;
3995;SDS011;2012;49.794;9.722;2024-01-06T00:09:37;9.03;;;3.40;;
3995;SDS011;2012;49.794;9.722;2024-01-06T00:12:04;6.17;;;3.60;;
3995;SDS011;2012;49.794;9.722;2024-01-06T00:14:31;7.20;;;3.93;;
3995;SDS011;2012;49.794;9.722;2024-01-06T00:16:58;7.37;;;4.10;;
3995;SDS011;2012;49.794;9.722;2024-01-06T00:19:25;9.83;;;4.93;;
3995;SDS011;2012;49.794;9.722;2024-01-06T00:21:52;9.33;;;4.73;;
3995;SDS011;2012;49.794;9.722;2024-01-06T00:24:19;10.87;;;4.90;;
3995;SDS011;2012;49.794;9.722;2024-01-06T00:26:45;9.50;;;4.60;;
3995;SDS011;2012;49.794;9.722;2024-01-06T00:29:12;9.97;;;4.23;;
3995;SDS011;2012;49.794;9.722;2024-01-06T00:31:39;12.47;;;5.03;;
3995;SDS011;2012;49.794;9.722;2024-01-06T00:34:06;8.77;;;4.60;;
3995;SDS011;2012;49.794;9.722;2024-01-06T00:36:33;11.10;;;4.97;;
3995;SDS011;2012;49.794;9.722;2024-01-06T00:39:00;5.77;;;4.33;;
3995;SDS011;2012;49.794;9.722;2024-01-06T00:41:27;13.63;;;4.53;;
3995;SDS011;2012;49.794;9.722;2024-01-06T00:43:54;10.50;;;4.50;;
3995;SDS011;2012;49.794;9.722;2024-01-06T00:46:21;9.93;;;4.60;;
3995;SDS011;2012;49.794;9.722;2024-01-06T00:48:48;6.50;;;4.17;;
3995;SDS011;2012;49.794;9.722;2024-01-06T00:51:15;7.20;;;3.90;;
3995;SDS011;2012;49.794;9.722;2024-01-06T00:53:42;8.13;;;3.93;;
3995;SDS011;2012;49.794;9.722;2024-01-06T00:56:09;6.60;;;4.20;;
3995;SDS011;2012;49.794;9.722;2024-01-06T00:58:35;9.80;;;3.73;;
3995;SDS011;2012;49.794;9.722;2024-01-06T01:01:02;6.57;;;4.10;;
3995;SDS011;2012;49.794;9.722;2024-01-06T01:03:30;5.13;;;3.97;;
3995;SDS011;2012;49.794;9.722;2024-01-06T01:05:57;8.43;;;4.83;;
3995;SDS011;2012;49.794;9.722;2024-01-06T01:08:24;7.70;;;4.97;;
3995;SDS011;2012;49.794;9.722;2024-01-06T01:10:51;8.47;;;4.57;;
3995;SDS011;2012;49.794;9.722;2024-01-06T01:13:17;12.17;;;5.20;;
3995;SDS011;2012;49.794;9.722;2024-01-06T01:15:44;8.80;;;4.07;;
3995;SDS011;2012;49.794;9.722;2024-01-06T01:18:11;8.00;;;4.73;;
3995;SDS011;2012;49.794;9.722;2024-01-06T01:20:39;14.80;;;5.63;;
3995;SDS011;2012;49.794;9.722;2024-01-06T01:23:08;15.40;;;4.57;;
3995;SDS011;2012;49.794;9.722;2024-01-06T01:25:35;7.57;;;3.90;;
3995;SDS011;2012;49.794;9.722;2024-01-06T01:28:01;9.00;;;3.90;;
3995;SDS011;2012;49.794;9.722;2024-01-06T01:30:28;5.90;;;3.97;;
3995;SDS011;2012;49.794;9.722;2024-01-06T01:32:56;8.53;;;4.37;;
3995;SDS011;2012;49.794;9.722;2024-01-06T01:35:23;7.57;;;4.60;;
3995;SDS011;2012;49.794;9.722;2024-01-06T01:37:49;10.10;;;4.70;;
3995;SDS011;2012;49.794;9.722;2024-01-06T01:40:16;6.23;;;3.80;;
3995;SDS011;2012;49.794;9.722;2024-01-06T01:42:43;6.00;;;3.70;;
3995;SDS011;2012;49.794;9.722;2024-01-06T01:45:10;8.20;;;4.30;;
3995;SDS011;2012;49.794;9.722;2024-01-06T01:47:38;10.10;;;4.60;;
3995;SDS011;2012;49.794;9.722;2024-01-06T01:50:06;5.13;;;3.40;;
3995;SDS011;2012;49.794;9.722;2024-01-06T01:52:35;6.37;;;3.20;;
3995;SDS011;2012;49.794;9.722;2024-01-06T01:55:03;12.60;;;3.27;;
3995;SDS011;2012;49.794;9.722;2024-01-06T01:57:30;4.63;;;3.40;;
3995;SDS011;2012;49.794;9.722;2024-01-06T01:59:57;4.97;;;3.07;;
3995;SDS011;2012;49.794;9.722;2024-01-06T02:02:26;8.77;;;4.03;;
3995;SDS011;2012;49.794;9.722;2024-01-06T02:04:55;4.40;;;3.33;;
3995;SDS011;2012;49.794;9.722;2024-01-06T02:07:22;4.10;;;2.77;;
3995;SDS011;2012;49.794;9.722;2024-01-06T02:09:49;5.40;;;2.93;;
3995;SDS011;2012;49.794;9.722;2024-01-06T02:12:16;6.30;;;2.90;;
3995;SDS011;2012;49.794;9.722;2024-01-06T02:14:43;3.47;;;2.30;;
3995;SDS011;2012;49.794;9.722;2024-01-06T02:17:10;6.97;;;2.90;;
3995;SDS011;2012;49.794;9.722;2024-01-06T02:19:37;10.00;;;2.70;;
3995;SDS011;2012;49.794;9.722;2024-01-06T02:22:05;4.93;;;2.40;;
3995;SDS011;2012;49.794;9.722;2024-01-06T02:24:32;5.97;;;3.20;;
3995;SDS011;2012;49.794;9.722;2024-01-06T02:26:59;2.93;;;2.60;;
3995;SDS011;2012;49.794;9.722;2024-01-06T02:29:26;2.70;;;2.50;;
3995;SDS011;2012;49.794;9.722;2024-01-06T02:31:53;6.70;;;2.70;;
3995;SDS011;2012;49.794;9.722;2024-01-06T02:34:20;5.00;;;3.00;;
3995;SDS011;2012;49.794;9.722;2024-01-06T02:36:47;4.50;;;2.57;;
3995;SDS011;2012;49.794;9.722;2024-01-06T02:39:14;6.00;;;2.87;;
3995;SDS011;2012;49.794;9.722;2024-01-06T02:41:41;8.93;;;3.30;;
3995;SDS011;2012;49.794;9.722;2024-01-06T02:44:08;5.43;;;2.50;;
3995;SDS011;2012;49.794;9.722;2024-01-06T02:46:39;6.00;;;2.90;;
3995;SDS011;2012;49.794;9.722;2024-01-06T02:49:06;5.57;;;2.70;;
3995;SDS011;2012;49.794;9.722;2024-01-06T02:51:34;9.60;;;2.70;;
3995;SDS011;2012;49.794;9.722;2024-01-06T02:54:01;2.40;;;2.10;;
3995;SDS011;2012;49.794;9.722;2024-01-06T02:56:28;3.40;;;2.70;;
3995;SDS011;2012;49.794;9.722;2024-01-06T02:58:55;6.37;;;2.23;;
3995;SDS011;2012;49.794;9.722;2024-01-06T03:01:22;2.60;;;2.20;;
3995;SDS011;2012;49.794;9.722;2024-01-06T03:03:48;2.63;;;2.43;;
3995;SDS011;2012;49.794;9.722;2024-01-06T03:06:15;3.30;;;2.23;;
3995;SDS011;2012;49.794;9.722;2024-01-06T03:08:42;4.00;;;1.90;;
3995;SDS011;2012;49.794;9.722;2024-01-06T03:11:10;10.43;;;2.30;;
3995;SDS011;2012;49.794;9.722;2024-01-06T03:13:37;2.27;;;2.07;;
3995;SDS011;2012;49.794;9.722;2024-01-06T03:16:04;6.83;;;2.50;;
3995;SDS011;2012;49.794;9.722;2024-01-06T03:18:33;4.50;;;2.03;;
3995;SDS011;2012;49.794;9.722;2024-01-06T03:21:00;2.10;;;1.87;;
3995;SDS011;2012;49.794;9.722;2024-01-06T03:23:27;3.83;;;2.30;;
3995;SDS011;2012;49.794;9.722;2024-01-06T03:25:54;2.70;;;2.27;;
3995;SDS011;2012;49.794;9.722;2024-01-06T03:28:21;5.53;;;2.20;;
3995;SDS011;2012;49.794;9.722;2024-01-06T03:30:48;7.63;;;2.43;;
3995;SDS011;2012;49.794;9.722;2024-01-06T03:33:15;2.03;;;1.80;;
3995;SDS011;2012;49.794;9.722;2024-01-06T03:35:42;3.10;;;1.97;;
3995;SDS011;2012;49.794;9.722;2024-01-06T03:38:09;3.00;;;2.03;;
3995;SDS011;2012;49.794;9.722;2024-01-06T03:40:36;4.40;;;2.13;;
3995;SDS011;2012;49.794;9.722;2024-01-06T03:43:02;4.53;;;1.57;;
3995;SDS011;2012;49.794;9.722;2024-01-06T03:45:29;1.73;;;1.63;;
3995;SDS011;2012;49.794;9.722;2024-01-06T03:47:56;7.10;;;2.53;;
3995;SDS011;2012;49.794;9.722;2024-01-06T03:50:23;2.40;;;1.87;;
3995;SDS011;2012;49.794;9.722;2024-01-06T03:52:50;2.77;;;1.83;;
3995;SDS011;2012;49.794;9.722;2024-01-06T03:55:17;2.30;;;1.90;;
3995;SDS011;2012;49.794;9.722;2024-01-06T03:57:44;6.50;;;2.60;;
3995;SDS011;2012;49.794;9.722;2024-01-06T04:00:11;3.13;;;2.00;;
3995;SDS011;2012;49.794;9.722;2024-01-06T04:02:38;2.97;;;2.20;;
3995;SDS011;2012;49.794;9.722;2024-01-06T04:05:05;6.10;;;2.10;;
3995;SDS011;2012;49.794;9.722;2024-01-06T04:07:32;4.27;;;2.27;;
3995;SDS011;2012;49.794;9.722;2024-01-06T04:09:59;2.00;;;1.77;;
3995;SDS011;2012;49.794;9.722;2024-01-06T04:12:26;2.73;;;1.97;;
3995;SDS011;2012;49.794;9.722;2024-01-06T04:14:53;3.40;;;2.07;;
3995;SDS011;2012;49.794;9.722;2024-01-06T04:17:20;5.10;;;3.13;;
3995;SDS011;2012;49.794;9.722;2024-01-06T04:19:47;5.60;;;1.70;;
3995;SDS011;2012;49.794;9.722;2024-01-06T04:22:14;3.43;;;2.43;;
3995;SDS011;2012;49.794;9.722;2024-01-06T04:24:41;2.60;;;2.07;;
3995;SDS011;2012;49.794;9.722;2024-01-06T04:27:07;4.70;;;1.90;;
3995;SDS011;2012;49.794;9.722;2024-01-06T04:29:36;8.67;;;2.60;;
3995;SDS011;2012;49.794;9.722;2024-01-06T04:32:03;3.60;;;1.80;;
3995;SDS011;2012;49.794;9.722;2024-01-06T04:34:30;5.70;;;2.20;;
3995;SDS011;2012;49.794;9.722;2024-01-06T04:36:57;5.47;;;1.90;;
3995;SDS011;2012;49.794;9.722;2024-01-06T04:39:24;7.73;;;2.27;;
3995;SDS011;2012;49.794;9.722;2024-01-06T04:41:50;2.50;;;2.30;;
3995;SDS011;2012;49.794;9.722;2024-01-06T04:44:19;3.80;;;2.20;;
3995;SDS011;2012;49.794;9.722;2024-01-06T04:46:47;3.90;;;2.13;;
3995;SDS011;2012;49.794;9.722;2024-01-06T04:49:14;8.57;;;1.83;;
3995;SDS011;2012;49.794;9.722;2024-01-06T04:51:41;4.40;;;1.63;;
3995;SDS011;2012;49.794;9.722;2024-01-06T04:54:08;2.83;;;1.73;;
3995;SDS011;2012;49.794;9.722;2024-01-06T04:56:35;3.00;;;1.90;;
3995;SDS011;2012;49.794;9.722;2024-01-06T04:59:02;3.43;;;1.60;;
3995;SDS011;2012;49.794;9.722;2024-01-06T05:01:29;5.63;;;1.90;;
3995;SDS011;2012;49.794;9.722;2024-01-06T05:03:56;2.37;;;1.87;;
3995;SDS011;2012;49.794;9.722;2024-01-06T05:06:23;6.90;;;2.23;;
3995;SDS011;2012;49.794;9.722;2024-01-06T05:08:50;4.27;;;2.20;;
3995;SDS011;2012;49.794;9.722;2024-01-06T05:11:17;3.93;;;2.23;;
3995;SDS011;2012;49.794;9.722;2024-01-06T05:13:44;2.50;;;1.80;;
3995;SDS011;2012;49.794;9.722;2024-01-06T05:16:11;2.00;;;1.87;;
3995;SDS011;2012;49.794;9.722;2024-01-06T05:18:38;2.40;;;1.63;;
3995;SDS011;2012;49.794;9.722;2024-01-06T05:21:05;4.90;;;2.00;;
3995;SDS011;2012;49.794;9.722;2024-01-06T05:23:32;3.20;;;1.73;;
3995;SDS011;2012;49.794;9.722;2024-01-06T05:25:58;7.13;;;2.10;;
3995;SDS011;2012;49.794;9.722;2024-01-06T05:28:25;5.17;;;2.07;;
3995;SDS011;2012;49.794;9.722;2024-01-06T05:30:52;3.40;;;1.73;;
3995;SDS011;2012;49.794;9.722;2024-01-06T05:33:19;4.73;;;2.03;;
3995;SDS011;2012;49.794;9.722;2024-01-06T05:35:46;5.20;;;1.93;;
3995;SDS011;2012;49.794;9.722;2024-01-06T05:38:13;4.33;;;2.30;;
3995;SDS011;2012;49.794;9.722;2024-01-06T05:40:40;1.73;;;1.63;;
3995;SDS011;2012;49.794;9.722;2024-01-06T05:43:08;4.00;;;1.83;;
3995;SDS011;2012;49.794;9.722;2024-01-06T05:45:35;4.87;;;1.90;;
3995;SDS011;2012;49.794;9.722;2024-01-06T05:48:04;4.00;;;1.60;;
3995;SDS011;2012;49.794;9.722;2024-01-06T05:50:34;3.03;;;1.70;;
3995;SDS011;2012;49.794;9.722;2024-01-06T05:53:01;3.90;;;1.93;;
3995;SDS011;2012;49.794;9.722;2024-01-06T05:55:28;3.00;;;1.63;;
3995;SDS011;2012;49.794;9.722;2024-01-06T05:57:55;2.10;;;1.50;;
3995;SDS011;2012;49.794;9.722;2024-01-06T06:00:22;3.90;;;1.70;;
3995;SDS011;2012;49.794;9.722;2024-01-06T06:02:49;4.57;;;2.00;;
3995;SDS011;2012;49.794;9.722;2024-01-06T06:05:16;2.07;;;1.57;;
3995;SDS011;2012;49.794;9.722;2024-01-06T06:07:43;2.70;;;1.60;;
3995;SDS011;2012;49.794;9.722;2024-01-06T06:10:10;4.30;;;1.57;;
3995;SDS011;2012;49.794;9.722;2024-01-06T06:12:38;7.10;;;2.07;;
3995;SDS011;2012;49.794;9.722;2024-01-06T06:15:05;7.97;;;1.50;;
3995;SDS011;2012;49.794;9.722;2024-01-06T06:17:33;1.83;;;1.60;;
3995;SDS011;2012;49.794;9.722;2024-01-06T06:20:00;3.63;;;1.73;;
3995;SDS011;2012;49.794;9.722;2024-01-06T06:22:27;2.70;;;1.60;;
3995;SDS011;2012;49.794;9.722;2024-01-06T06:24:57;2.30;;;1.87;;
3995;SDS011;2012;49.794;9.722;2024-01-06T06:27:25;2.90;;;1.83;;
3995;SDS011;2012;49.794;9.722;2024-01-06T06:29:53;3.00;;;1.87;;
3995;SDS011;2012;49.794;9.722;2024-01-06T06:32:20;5.40;;;1.80;;
3995;SDS011;2012;49.794;9.722;2024-01-06T06:34:47;2.87;;;2.07;;
3995;SDS011;2012;49.794;9.722;2024-01-06T06:37:14;4.73;;;2.30;;
3995;SDS011;2012;49.794;9.722;2024-01-06T06:39:42;4.87;;;2.10;;
3995;SDS011;2012;49.794;9.722;2024-01-06T06:42:11;2.83;;;1.80;;
3995;SDS011;2012;49.794;9.722;2024-01-06T06:44:38;6.20;;;2.00;;
3995;SDS011;2012;49.794;9.722;2024-01-06T06:47:05;2.30;;;1.83;;
3995;SDS011;2012;49.794;9.722;2024-01-06T06:49:32;5.50;;;2.67;;
3995;SDS011;2012;49.794;9.722;2024-01-06T06:51:58;3.50;;;2.07;;
3995;SDS011;2012;49.794;9.722;2024-01-06T06:54:26;7.63;;;2.20;;
3995;SDS011;2012;49.794;9.722;2024-01-06T06:56:53;8.23;;;2.00;;
3995;SDS011;2012;49.794;9.722;2024-01-06T06:59:19;6.70;;;1.90;;
3995;SDS011;2012;49.794;9.722;2024-01-06T07:01:46;1.90;;;1.63;;
3995;SDS011;2012;49.794;9.722;2024-01-06T07:04:13;3.20;;;2.00;;
3995;SDS011;2012;49.794;9.722;2024-01-06T07:06:40;5.00;;;1.80;;
3995;SDS011;2012;49.794;9.722;2024-01-06T07:09:07;4.03;;;2.00;;
3995;SDS011;2012;49.794;9.722;2024-01-06T07:11:34;3.40;;;2.20;;
3995;SDS011;2012;49.794;9.722;2024-01-06T07:14:01;3.83;;;2.40;;
3995;SDS011;2012;49.794;9.722;2024-01-06T07:16:27;1.70;;;1.60;;
3995;SDS011;2012;49.794;9.722;2024-01-06T07:18:54;7.50;;;2.13;;
3995;SDS011;2012;49.794;9.722;2024-01-06T07:21:21;2.33;;;2.13;;
3995;SDS011;2012;49.794;9.722;2024-01-06T07:23:49;4.67;;;1.90;;
3995;SDS011;2012;49.794;9.722;2024-01-06T07:26:16;6.87;;;2.77;;
3995;SDS011;2012;49.794;9.722;2024-01-06T07:28:44;3.20;;;2.13;;
3995;SDS011;2012;49.794;9.722;2024-01-06T07:31:11;2.93;;;2.43;;
3995;SDS011;2012;49.794;9.722;2024-01-06T07:33:38;8.03;;;2.83;;
3995;SDS011;2012;49.794;9.722;2024-01-06T07:36:06;8.03;;;2.67;;
3995;SDS011;2012;49.794;9.722;2024-01-06T07:38:33;4.07;;;2.43;;
3995;SDS011;2012;49.794;9.722;2024-01-06T07:41:00;3.83;;;3.17;;
3995;SDS011;2012;49.794;9.722;2024-01-06T07:43:27;7.03;;;3.70;;
3995;SDS011;2012;49.794;9.722;2024-01-06T07:45:54;6.97;;;4.50;;
3995;SDS011;2012;49.794;9.722;2024-01-06T07:48:21;9.30;;;4.57;;
3995;SDS011;2012;49.794;9.722;2024-01-06T07:50:49;9.70;;;4.10;;
3995;SDS011;2012;49.794;9.722;2024-01-06T07:53:16;5.73;;;3.60;;
3995;SDS011;2012;49.794;9.722;2024-01-06T07:55:44;11.70;;;6.33;;
3995;SDS011;2012;49.794;9.722;2024-01-06T07:58:10;7.03;;;3.67;;
3995;SDS011;2012;49.794;9.722;2024-01-06T08:00:38;16.80;;;4.93;;
3995;SDS011;2012;49.794;9.722;2024-01-06T08:03:05;6.40;;;3.30;;
3995;SDS011;2012;49.794;9.722;2024-01-06T08:05:33;24.00;;;11.73;;
3995;SDS011;2012;49.794;9.722;2024-01-06T08:08:00;17.43;;;7.53;;
3995;SDS011;2012;49.794;9.722;2024-01-06T08:10:27;10.10;;;5.40;;
3995;SDS011;2012;49.794;9.722;2024-01-06T08:12:54;16.13;;;6.97;;
3995;SDS011;2012;49.794;9.722;2024-01-06T08:15:21;10.23;;;6.20;;
3995;SDS011;2012;49.794;9.722;2024-01-06T08:17:48;5.83;;;5.23;;
3995;SDS011;2012;49.794;9.722;2024-01-06T08:20:15;12.73;;;7.23;;
3995;SDS011;2012;49.794;9.722;2024-01-06T08:22:42;14.93;;;6.67;;
3995;SDS011;2012;49.794;9.722;2024-01-06T08:25:10;15.70;;;5.40;;
3995;SDS011;2012;49.794;9.722;2024-01-06T08:27:37;8.97;;;6.10;;
3995;SDS011;2012;49.794;9.722;2024-01-06T08:30:04;15.33;;;8.50;;
3995;SDS011;2012;49.794;9.722;2024-01-06T08:32:33;13.80;;;8.13;;
3995;SDS011;2012;49.794;9.722;2024-01-06T08:35:00;12.90;;;8.03;;
3995;SDS011;2012;49.794;9.722;2024-01-06T08:37:27;15.73;;;10.50;;
3995;SDS011;2012;49.794;9.722;2024-01-06T08:39:54;17.83;;;11.20;;
3995;SDS011;2012;49.794;9.722;2024-01-06T08:42:21;23.33;;;11.27;;
3995;SDS011;2012;49.794;9.722;2024-01-06T08:44:48;21.30;;;12.50;;
3995;SDS011;2012;49.794;9.722;2024-01-06T08:47:15;18.17;;;11.50;;
3995;SDS011;2012;49.794;9.722;2024-01-06T08:49:42;21.70;;;13.40;;
3995;SDS011;2012;49.794;9.722;2024-01-06T08:52:09;23.33;;;12.77;;
3995;SDS011;2012;49.794;9.722;2024-01-06T08:54:36;19.37;;;12.40;;
3995;SDS011;2012;49.794;9.722;2024-01-06T08:57:03;19.00;;;12.30;;
3995;SDS011;2012;49.794;9.722;2024-01-06T08:59:30;24.17;;;12.93;;
3995;SDS011;2012;49.794;9.722;2024-01-06T09:01:56;18.83;;;12.80;;
3995;SDS011;2012;49.794;9.722;2024-01-06T09:04:23;15.97;;;12.10;;
3995;SDS011;2012;49.794;9.722;2024-01-06T09:06:50;20.67;;;11.67;;
3995;SDS011;2012;49.794;9.722;2024-01-06T09:09:18;19.03;;;12.07;;
3995;SDS011;2012;49.794;9.722;2024-01-06T09:11:45;17.50;;;10.67;;
3995;SDS011;2012;49.794;9.722;2024-01-06T09:14:12;17.57;;;10.10;;
3995;SDS011;2012;49.794;9.722;2024-01-06T09:16:39;19.20;;;10.00;;
3995;SDS011;2012;49.794;9.722;2024-01-06T09:19:06;17.37;;;9.30;;
3995;SDS011;2012;49.794;9.722;2024-01-06T09:21:34;17.57;;;9.10;;
3995;SDS011;2012;49.794;9.722;2024-01-06T09:24:02;12.87;;;8.70;;
3995;SDS011;2012;49.794;9.722;2024-01-06T09:26:32;16.80;;;9.77;;
3995;SDS011;2012;49.794;9.722;2024-01-06T09:29:00;19.17;;;8.63;;
3995;SDS011;2012;49.794;9.722;2024-01-06T09:31:29;17.17;;;8.20;;
3995;SDS011;2012;49.794;9.722;2024-01-06T09:33:59;10.20;;;5.30;;
3995;SDS011;2012;49.794;9.722;2024-01-06T09:36:30;8.67;;;5.23;;
3995;SDS011;2012;49.794;9.722;2024-01-06T09:38:57;13.40;;;6.20;;
3995;SDS011;2012;49.794;9.722;2024-01-06T09:41:24;10.40;;;6.33;;
3995;SDS011;2012;49.794;9.722;2024-01-06T09:43:51;11.30;;;5.70;;
3995;SDS011;2012;49.794;9.722;2024-01-06T09:46:23;12.33;;;7.23;;
3995;SDS011;2012;49.794;9.722;2024-01-06T09:48:52;10.53;;;6.70;;
3995;SDS011;2012;49.794;9.722;2024-01-06T09:51:20;11.20;;;5.97;;
3995;SDS011;2012;49.794;9.722;2024-01-06T09:53:49;14.20;;;7.83;;
3995;SDS011;2012;49.794;9.722;2024-01-06T09:56:28;17.60;;;7.47;;
3995;SDS011;2012;49.794;9.722;2024-01-06T09:58:56;10.67;;;6.40;;
3995;SDS011;2012;49.794;9.722;2024-01-06T10:01:23;10.10;;;5.90;;
3995;SDS011;2012;49.794;9.722;2024-01-06T10:03:51;12.50;;;7.00;;
3995;SDS011;2012;49.794;9.722;2024-01-06T10:06:18;12.07;;;6.33;;
3995;SDS011;2012;49.794;9.722;2024-01-06T10:08:50;8.90;;;4.93;;
3995;SDS011;2012;49.794;9.722;2024-01-06T10:11:24;8.77;;;5.80;;
3995;SDS011;2012;49.794;9.722;2024-01-06T10:13:51;13.97;;;5.80;;
3995;SDS011;2012;49.794;9.722;2024-01-06T10:16:21;9.30;;;5.60;;
3995;SDS011;2012;49.794;9.722;2024-01-06T10:18:49;7.00;;;5.53;;
3995;SDS011;2012;49.794;9.722;2024-01-06T10:21:22;9.07;;;6.43;;
3995;SDS011;2012;49.794;9.722;2024-01-06T10:23:51;8.00;;;6.03;;
3995;SDS011;2012;49.794;9.722;2024-01-06T10:26:19;12.00;;;6.60;;
3995;SDS011;2012;49.794;9.722;2024-01-06T10:28:47;11.83;;;7.50;;
3995;SDS011;2012;49.794;9.722;2024-01-06T10:31:16;28.30;;;12.80;;
3995;SDS011;2012;49.794;9.722;2024-01-06T10:33:44;32.53;;;18.47;;
3995;SDS011;2012;49.794;9.722;2024-01-06T10:36:12;32.90;;;14.00;;
3995;SDS011;2012;49.794;9.722;2024-01-06T10:38:40;20.03;;;11.40;;
3995;SDS011;2012;49.794;9.722;2024-01-06T10:41:06;18.60;;;9.60;;
3995;SDS011;2012;49.794;9.722;2024-01-06T10:43:34;24.80;;;8.50;;
3995;SDS011;2012;49.794;9.722;2024-01-06T10:46:04;10.17;;;5.90;;
3995;SDS011;2012;49.794;9.722;2024-01-06T10:48:32;10.00;;;5.60;;
3995;SDS011;2012;49.794;9.722;2024-01-06T10:51:00;8.43;;;5.50;;
3995;SDS011;2012;49.794;9.722;2024-01-06T10:53:34;9.50;;;6.03;;
3995;SDS011;2012;49.794;9.722;2024-01-06T10:56:03;8.93;;;5.70;;
3995;SDS011;2012;49.794;9.722;2024-01-06T10:58:32;10.60;;;6.80;;
3995;SDS011;2012;49.794;9.722;2024-01-06T11:01:00;8.50;;;5.63;;
3995;SDS011;2012;49.794;9.722;2024-01-06T11:03:27;8.37;;;5.23;;
3995;SDS011;2012;49.794;9.722;2024-01-06T11:05:56;8.67;;;5.30;;
3995;SDS011;2012;49.794;9.722;2024-01-06T11:08:25;17.53;;;8.47;;
3995;SDS011;2012;49.794;9.722;2024-01-06T11:10:53;16.67;;;9.43;;
3995;SDS011;2012;49.794;9.722;2024-01-06T11:13:23;8.70;;;5.40;;
3995;SDS011;2012;49.794;9.722;2024-01-06T11:15:51;10.33;;;5.00;;
3995;SDS011;2012;49.794;9.722;2024-01-06T11:21:16;7.20;;;4.27;;
3995;SDS011;2012;49.794;9.722;2024-01-06T11:26:55;5.53;;;4.40;;
3995;SDS011;2012;49.794;9.722;2024-01-06T11:29:23;5.83;;;4.10;;
3995;SDS011;2012;49.794;9.722;2024-01-06T11:34:55;7.50;;;4.00;;
3995;SDS011;2012;49.794;9.722;2024-01-06T11:37:37;8.90;;;4.93;;
3995;SDS011;2012;49.794;9.722;2024-01-06T11:43:09;6.27;;;4.07;;
3995;SDS011;2012;49.794;9.722;2024-01-06T11:45:40;7.20;;;4.40;;
3995;SDS011;2012;49.794;9.722;2024-01-06T11:48:10;8.23;;;4.10;;
3995;SDS011;2012;49.794;9.722;2024-01-06T11:50:39;6.63;;;4.17;;
3995;SDS011;2012;49.794;9.722;2024-01-06T11:53:07;4.77;;;3.40;;
3995;SDS011;2012;49.794;9.722;2024-01-06T11:55:38;8.17;;;4.40;;
3995;SDS011;2012;49.794;9.722;2024-01-06T11:58:06;9.83;;;3.20;;
3995;SDS011;2012;49.794;9.722;2024-01-06T12:00:33;6.57;;;3.20;;
3995;SDS011;2012;49.794;9.722;2024-01-06T12:03:03;6.47;;;2.97;;
3995;SDS011;2012;49.794;9.722;2024-01-06T12:05:30;5.47;;;2.70;;
3995;SDS011;2012;49.794;9.722;2024-01-06T12:07:57;2.93;;;2.40;;
3995;SDS011;2012;49.794;9.722;2024-01-06T12:10:27;3.60;;;2.90;;
3995;SDS011;2012;49.794;9.722;2024-01-06T12:12:55;4.30;;;2.93;;
3995;SDS011;2012;49.794;9.722;2024-01-06T12:15:25;9.30;;;4.33;;
3995;SDS011;2012;49.794;9.722;2024-01-06T12:17:53;8.80;;;3.50;;
3995;SDS011;2012;49.794;9.722;2024-01-06T12:20:21;5.00;;;3.30;;
3995;SDS011;2012;49.794;9.722;2024-01-06T12:22:52;6.83;;;2.70;;
3995;SDS011;2012;49.794;9.722;2024-01-06T12:25:22;16.93;;;3.23;;
3995;SDS011;2012;49.794;9.722;2024-01-06T12:27:51;9.60;;;2.77;;
3995;SDS011;2012;49.794;9.722;2024-01-06T12:30:20;7.60;;;3.30;;
3995;SDS011;2012;49.794;9.722;2024-01-06T12:32:49;4.93;;;2.73;;
3995;SDS011;2012;49.794;9.722;2024-01-06T12:35:19;4.63;;;2.60;;
3995;SDS011;2012;49.794;9.722;2024-01-06T12:37:47;3.93;;;2.70;;
3995;SDS011;2012;49.794;9.722;2024-01-06T12:40:15;4.00;;;2.60;;
3995;SDS011;2012;49.794;9.722;2024-01-06T12:42:43;6.73;;;3.10;;
3995;SDS011;2012;49.794;9.722;2024-01-06T12:45:12;5.40;;;2.87;;
3995;SDS011;2012;49.794;9.722;2024-01-06T12:47:39;7.00;;;3.83;;
3995;SDS011;2012;49.794;9.722;2024-01-06T12:50:07;10.10;;;3.80;;
3995;SDS011;2012;49.794;9.722;2024-01-06T12:52:35;4.67;;;3.20;;
3995;SDS011;2012;49.794;9.722;2024-01-06T12:55:05;5.33;;;3.40;;
3995;SDS011;2012;49.794;9.722;2024-01-06T12:57:32;9.50;;;3.10;;
3995;SDS011;2012;49.794;9.722;2024-01-06T13:00:00;6.03;;;3.50;;
3995;SDS011;2012;49.794;9.722;2024-01-06T13:02:27;6.87;;;3.80;;
3995;SDS011;2012;49.794;9.722;2024-01-06T13:04:54;5.43;;;2.90;;
3995;SDS011;2012;49.794;9.722;2024-01-06T13:07:21;3.30;;;2.83;;
3995;SDS011;2012;49.794;9.722;2024-01-06T13:09:48;5.83;;;2.67;;
3995;SDS011;2012;49.794;9.722;2024-01-06T13:12:16;4.30;;;2.80;;
3995;SDS011;2012;49.794;9.722;2024-01-06T13:14:45;5.03;;;2.93;;
3995;SDS011;2012;49.794;9.722;2024-01-06T13:17:15;8.27;;;3.03;;
3995;SDS011;2012;49.794;9.722;2024-01-06T13:19:43;10.10;;;4.13;;
3995;SDS011;2012;49.794;9.722;2024-01-06T13:22:10;6.63;;;3.40;;
3995;SDS011;2012;49.794;9.722;2024-01-06T13:24:37;4.67;;;2.83;;
3995;SDS011;2012;49.794;9.722;2024-01-06T13:27:04;5.23;;;2.83;;
3995;SDS011;2012;49.794;9.722;2024-01-06T13:29:31;5.10;;;2.60;;
3995;SDS011;2012;49.794;9.722;2024-01-06T13:31:58;13.73;;;2.47;;
3995;SDS011;2012;49.794;9.722;2024-01-06T13:34:26;5.27;;;2.60;;
3995;SDS011;2012;49.794;9.722;2024-01-06T13:36:54;4.40;;;2.73;;
3995;SDS011;2012;49.794;9.722;2024-01-06T13:39:23;5.60;;;2.50;;
3995;SDS011;2012;49.794;9.722;2024-01-06T13:41:50;6.23;;;2.97;;
3995;SDS011;2012;49.794;9.722;2024-01-06T13:44:17;5.17;;;2.73;;
3995;SDS011;2012;49.794;9.722;2024-01-06T13:46:44;5.83;;;2.97;;
3995;SDS011;2012;49.794;9.722;2024-01-06T13:49:11;4.87;;;2.50;;
3995;SDS011;2012;49.794;9.722;2024-01-06T13:51:39;6.00;;;2.90;;
3995;SDS011;2012;49.794;9.722;2024-01-06T13:54:06;6.43;;;3.00;;
3995;SDS011;2012;49.794;9.722;2024-01-06T13:56:35;6.13;;;2.50;;
3995;SDS011;2012;49.794;9.722;2024-01-06T13:59:03;8.93;;;4.97;;
3995;SDS011;2012;49.794;9.722;2024-01-06T14:01:30;4.77;;;2.30;;
3995;SDS011;2012;49.794;9.722;2024-01-06T14:03:58;2.90;;;2.30;;
3995;SDS011;2012;49.794;9.722;2024-01-06T14:06:25;8.77;;;4.93;;
3995;SDS011;2012;49.794;9.722;2024-01-06T14:09:00;17.77;;;6.03;;
3995;SDS011;2012;49.794;9.722;2024-01-06T14:11:27;12.33;;;7.57;;
3995;SDS011;2012;49.794;9.722;2024-01-06T14:13:53;20.20;;;6.57;;
3995;SDS011;2012;49.794;9.722;2024-01-06T14:16:20;17.73;;;7.77;;
3995;SDS011;2012;49.794;9.722;2024-01-06T14:18:48;12.17;;;5.30;;
3995;SDS011;2012;49.794;9.722;2024-01-06T14:21:15;17.23;;;7.63;;
3995;SDS011;2012;49.794;9.722;2024-01-06T14:23:45;10.07;;;5.47;;
3995;SDS011;2012;49.794;9.722;2024-01-06T14:26:14;7.30;;;3.50;;
3995;SDS011;2012;49.794;9.722;2024-01-06T14:28:43;6.50;;;3.50;;
3995;SDS011;2012;49.794;9.722;2024-01-06T14:31:10;6.57;;;3.90;;
3995;SDS011;2012;49.794;9.722;2024-01-06T14:33:37;8.87;;;4.70;;
3995;SDS011;2012;49.794;9.722;2024-01-06T14:36:04;13.30;;;7.20;;
3995;SDS011;2012;49.794;9.722;2024-01-06T14:38:31;7.90;;;4.97;;
3995;SDS011;2012;49.794;9.722;2024-01-06T14:40:58;6.70;;;4.07;;
3995;SDS011;2012;49.794;9.722;2024-01-06T14:43:25;8.80;;;3.53;;
3995;SDS011;2012;49.794;9.722;2024-01-06T14:45:52;25.77;;;12.13;;
3995;SDS011;2012;49.794;9.722;2024-01-06T14:48:19;18.50;;;8.00;;
3995;SDS011;2012;49.794;9.722;2024-01-06T14:50:46;14.33;;;7.07;;
3995;SDS011;2012;49.794;9.722;2024-01-06T14:53:14;14.30;;;6.40;;
3995;SDS011;2012;49.794;9.722;2024-01-06T14:55:41;11.40;;;5.77;;
3995;SDS011;2012;49.794;9.722;2024-01-06T14:58:08;12.57;;;5.17;;
3995;SDS011;2012;49.794;9.722;2024-01-06T15:00:36;14.13;;;5.20;;
3995;SDS011;2012;49.794;9.722;2024-01-06T15:03:03;10.40;;;6.10;;
3995;SDS011;2012;49.794;9.722;2024-01-06T15:05:30;12.47;;;6.67;;
3995;SDS011;2012;49.794;9.722;2024-01-06T15:07:57;10.80;;;4.60;;
3995;SDS011;2012;49.794;9.722;2024-01-06T15:10:24;9.87;;;5.80;;
3995;SDS011;2012;49.794;9.722;2024-01-06T15:12:52;5.30;;;4.47;;
3995;SDS011;2012;49.794;9.722;2024-01-06T15:15:19;8.50;;;3.80;;
3995;SDS011;2012;49.794;9.722;2024-01-06T15:17:46;5.87;;;3.33;;
3995;SDS011;2012;49.794;9.722;2024-01-06T15:20:13;3.67;;;2.40;;
3995;SDS011;2012;49.794;9.722;2024-01-06T15:22:40;4.40;;;2.73;;
3995;SDS011;2012;49.794;9.722;2024-01-06T15:25:07;5.20;;;2.70;;